METAR Data
IDs: Format: Raw Decoded Include TAF

Data at: 0704 UTC 23 Feb 2019

FNLU 230600Z 06004KT 9999 SCT021 BKN070 24/23 Q1010 NOSIG

TAF FNLU 230500Z 2306/2412 15006KT 9999 FEW020 SCT025
  TEMPO 2307/2312 21006KT
  TEMPO 2313/2317 27010KT 8000 -DZ BKN025 FEW030CB
  BECMG 2320/2322 VRB03KT 9999 FEW020 SCT023


FNCA 230600Z 00000KT 9999 FEW010 BKN080 25/23 Q1011

TAF FNCA 222230Z 2300/2312 12005KT 9999 TS FEW020CB BKN025
  BECMG 2310/2312 20005KT 7000 -TSRA



TAF FNBG 222230Z 2300/2312 VRB03KT 8000 FEW020CB SCT025
  TEMPO 2309/2312 32005KT


FNHU 230600Z VRB03KT 5000 VCFG SCT012 BKN060 16/16 Q1022

TAF FNHU 222230Z 2300/2312 VRB03KT 8000 BKN020 FEW025CB
  TEMPO 2304/2308 00000KT 5000 BR


FNUE 230600Z 30006KT 9999 SCT020 BKN060 18/17 Q1021

TAF FNUE 230400Z 2300/2312 31005KT 9000 TS BKN018 FEW020CB
  TEMPO 2306/2311 25010KT 6000 -TSRA


FNGI 230600Z 25006KT 9999 FEW010 21/17 Q1017

TAF FNGI 222230Z 2300/2312 14006KT 9000 FEW020 SCT025


TAF FNUB 222230Z 2300/2312 21005KT 9999 FEW018 SCT020
  BECMG 2310/2312 27009KT



TAF FNMO 222230Z 2300/2312 VRB03KT 9999 FEW015 SCT018
  BECMG 2310/2312 30006KT


No TAF found for FNUG

TAF FNMA 222230Z 2300/2312 30005KT 9000 BKN018 FEW020CB
  TEMPO 2301/2306 24007KT 7000 -TSRA



TAF FNSA 222230Z 2300/2312 35005KT 9000 BKN025 FEW030CB
  PROB30
  TEMPO 2304/2309 7000 -TSRA



TAF FNSO 222230Z 2300/2312 14005KT 9999 TS FEW025CB BKN030
  BECMG 2309/2311 18006KT 7000 -TSRA


No TAF found for FNBC
FNSU 230600Z 00000KT 9999 OVC012 22/// Q1013
No TAF found for FNSU

FNDU 230600Z 00000KT 6000 DZ FEW026 20/16 Q1019

TAF FNDU 222230Z 2300/2312 VRB02KT 9000 TS FEW023CB BKN025
  PROB30
  TEMPO 2301/2307 30004KT 7000 -TSRA



TAF FNME 222230Z 2300/2312 16005KT 8000 FEW020 SCT030
  BECMG 2310/2312 7000 -TSRA



TAF FNCT 222230Z 2300/2312 VRB03KT 9000 FEW018CB SCT023
  BECMG 2310/2312 31005KT



TAF FNKU 222230Z 2300/2312 31006KT 9000 FEW020CB SCT030
  BECMG 2310/2312 25005KT